sensor_id;sensor_type;location;lat;lon;timestamp;P1;durP1;ratioP1;P2;durP2;ratioP2
19758;SDS011;10038;42.662;23.278;2023-07-13T00:01:38;6.37;;;4.07;;
19758;SDS011;10038;42.662;23.278;2023-07-13T00:04:04;6.83;;;4.60;;
19758;SDS011;10038;42.662;23.278;2023-07-13T00:06:31;9.37;;;4.30;;
19758;SDS011;10038;42.662;23.278;2023-07-13T00:08:58;4.63;;;4.13;;
19758;SDS011;10038;42.662;23.278;2023-07-13T00:11:24;8.80;;;4.20;;
19758;SDS011;10038;42.662;23.278;2023-07-13T00:13:51;11.10;;;5.03;;
19758;SDS011;10038;42.662;23.278;2023-07-13T00:16:18;7.27;;;5.20;;
19758;SDS011;10038;42.662;23.278;2023-07-13T00:18:46;8.27;;;4.67;;
19758;SDS011;10038;42.662;23.278;2023-07-13T00:21:13;7.17;;;4.30;;
19758;SDS011;10038;42.662;23.278;2023-07-13T00:23:40;12.17;;;4.30;;
19758;SDS011;10038;42.662;23.278;2023-07-13T00:26:08;6.43;;;4.60;;
19758;SDS011;10038;42.662;23.278;2023-07-13T00:28:40;5.40;;;4.23;;
19758;SDS011;10038;42.662;23.278;2023-07-13T00:31:07;6.70;;;4.40;;
19758;SDS011;10038;42.662;23.278;2023-07-13T00:33:34;5.53;;;4.57;;
19758;SDS011;10038;42.662;23.278;2023-07-13T00:36:02;6.73;;;4.27;;
19758;SDS011;10038;42.662;23.278;2023-07-13T00:38:29;6.10;;;4.27;;
19758;SDS011;10038;42.662;23.278;2023-07-13T00:40:55;5.00;;;4.03;;
19758;SDS011;10038;42.662;23.278;2023-07-13T00:43:23;5.87;;;4.53;;
19758;SDS011;10038;42.662;23.278;2023-07-13T00:48:43;8.77;;;4.90;;
19758;SDS011;10038;42.662;23.278;2023-07-13T00:51:12;8.80;;;4.60;;
19758;SDS011;10038;42.662;23.278;2023-07-13T00:53:39;11.77;;;5.40;;
19758;SDS011;10038;42.662;23.278;2023-07-13T00:56:06;6.83;;;5.03;;
19758;SDS011;10038;42.662;23.278;2023-07-13T00:58:33;8.03;;;4.40;;
19758;SDS011;10038;42.662;23.278;2023-07-13T01:00:59;6.90;;;4.40;;
19758;SDS011;10038;42.662;23.278;2023-07-13T01:03:26;5.10;;;4.20;;
19758;SDS011;10038;42.662;23.278;2023-07-13T01:05:52;7.53;;;5.10;;
19758;SDS011;10038;42.662;23.278;2023-07-13T01:08:21;9.60;;;5.00;;
19758;SDS011;10038;42.662;23.278;2023-07-13T01:10:51;7.30;;;4.67;;
19758;SDS011;10038;42.662;23.278;2023-07-13T01:13:18;4.73;;;4.07;;
19758;SDS011;10038;42.662;23.278;2023-07-13T01:15:46;7.67;;;5.03;;
19758;SDS011;10038;42.662;23.278;2023-07-13T01:18:13;4.97;;;4.07;;
19758;SDS011;10038;42.662;23.278;2023-07-13T01:20:40;5.27;;;4.50;;
19758;SDS011;10038;42.662;23.278;2023-07-13T01:23:09;5.57;;;5.00;;
19758;SDS011;10038;42.662;23.278;2023-07-13T01:25:36;7.60;;;4.30;;
19758;SDS011;10038;42.662;23.278;2023-07-13T01:28:03;5.07;;;4.67;;
19758;SDS011;10038;42.662;23.278;2023-07-13T01:30:30;4.70;;;4.30;;
19758;SDS011;10038;42.662;23.278;2023-07-13T01:32:57;7.80;;;4.60;;
19758;SDS011;10038;42.662;23.278;2023-07-13T01:35:24;5.70;;;4.90;;
19758;SDS011;10038;42.662;23.278;2023-07-13T01:37:52;9.57;;;5.60;;
19758;SDS011;10038;42.662;23.278;2023-07-13T01:40:20;6.20;;;5.20;;
19758;SDS011;10038;42.662;23.278;2023-07-13T01:42:46;11.07;;;5.00;;
19758;SDS011;10038;42.662;23.278;2023-07-13T01:45:13;6.93;;;4.67;;
19758;SDS011;10038;42.662;23.278;2023-07-13T01:47:39;5.60;;;4.40;;
19758;SDS011;10038;42.662;23.278;2023-07-13T01:50:06;5.43;;;4.73;;
19758;SDS011;10038;42.662;23.278;2023-07-13T01:52:33;11.10;;;5.83;;
19758;SDS011;10038;42.662;23.278;2023-07-13T01:54:59;7.10;;;4.90;;
19758;SDS011;10038;42.662;23.278;2023-07-13T01:57:28;6.03;;;5.30;;
19758;SDS011;10038;42.662;23.278;2023-07-13T01:59:54;5.23;;;4.73;;
19758;SDS011;10038;42.662;23.278;2023-07-13T02:02:21;7.43;;;4.90;;
19758;SDS011;10038;42.662;23.278;2023-07-13T02:04:47;7.83;;;5.20;;
19758;SDS011;10038;42.662;23.278;2023-07-13T02:07:14;8.60;;;5.23;;
19758;SDS011;10038;42.662;23.278;2023-07-13T02:09:41;7.90;;;4.77;;
19758;SDS011;10038;42.662;23.278;2023-07-13T02:12:08;5.07;;;4.57;;
19758;SDS011;10038;42.662;23.278;2023-07-13T02:14:36;10.03;;;4.70;;
19758;SDS011;10038;42.662;23.278;2023-07-13T02:17:03;7.27;;;5.70;;
19758;SDS011;10038;42.662;23.278;2023-07-13T02:19:30;5.93;;;5.03;;
19758;SDS011;10038;42.662;23.278;2023-07-13T02:21:56;7.43;;;5.50;;
19758;SDS011;10038;42.662;23.278;2023-07-13T02:24:23;5.93;;;5.00;;
19758;SDS011;10038;42.662;23.278;2023-07-13T02:26:49;7.23;;;5.30;;
19758;SDS011;10038;42.662;23.278;2023-07-13T02:29:16;9.27;;;5.83;;
19758;SDS011;10038;42.662;23.278;2023-07-13T02:31:44;5.47;;;4.97;;
19758;SDS011;10038;42.662;23.278;2023-07-13T02:34:11;7.70;;;5.77;;
19758;SDS011;10038;42.662;23.278;2023-07-13T02:36:38;9.37;;;5.67;;
19758;SDS011;10038;42.662;23.278;2023-07-13T02:39:05;6.00;;;5.40;;
19758;SDS011;10038;42.662;23.278;2023-07-13T02:44:23;8.33;;;5.03;;
19758;SDS011;10038;42.662;23.278;2023-07-13T02:46:50;7.80;;;6.07;;
19758;SDS011;10038;42.662;23.278;2023-07-13T02:49:17;7.43;;;6.50;;
19758;SDS011;10038;42.662;23.278;2023-07-13T02:51:44;5.70;;;5.20;;
19758;SDS011;10038;42.662;23.278;2023-07-13T02:54:10;11.13;;;5.67;;
19758;SDS011;10038;42.662;23.278;2023-07-13T02:56:38;7.13;;;5.43;;
19758;SDS011;10038;42.662;23.278;2023-07-13T02:59:05;6.00;;;5.43;;
19758;SDS011;10038;42.662;23.278;2023-07-13T03:01:32;8.87;;;5.80;;
19758;SDS011;10038;42.662;23.278;2023-07-13T03:04:02;11.20;;;5.83;;
19758;SDS011;10038;42.662;23.278;2023-07-13T03:06:30;15.60;;;6.27;;
19758;SDS011;10038;42.662;23.278;2023-07-13T03:08:57;7.40;;;6.37;;
19758;SDS011;10038;42.662;23.278;2023-07-13T03:11:23;15.13;;;6.37;;
19758;SDS011;10038;42.662;23.278;2023-07-13T03:13:50;11.53;;;6.70;;
19758;SDS011;10038;42.662;23.278;2023-07-13T03:16:16;8.00;;;5.60;;
19758;SDS011;10038;42.662;23.278;2023-07-13T03:18:43;8.37;;;5.90;;
19758;SDS011;10038;42.662;23.278;2023-07-13T03:21:11;10.13;;;6.30;;
19758;SDS011;10038;42.662;23.278;2023-07-13T03:23:38;8.83;;;5.80;;
19758;SDS011;10038;42.662;23.278;2023-07-13T03:26:05;8.30;;;6.33;;
19758;SDS011;10038;42.662;23.278;2023-07-13T03:28:33;11.87;;;6.27;;
19758;SDS011;10038;42.662;23.278;2023-07-13T03:31:00;6.57;;;5.33;;
19758;SDS011;10038;42.662;23.278;2023-07-13T03:33:26;9.90;;;6.80;;
19758;SDS011;10038;42.662;23.278;2023-07-13T03:35:53;13.73;;;5.73;;
19758;SDS011;10038;42.662;23.278;2023-07-13T03:38:21;13.17;;;6.00;;
19758;SDS011;10038;42.662;23.278;2023-07-13T03:40:47;17.87;;;7.90;;
19758;SDS011;10038;42.662;23.278;2023-07-13T03:43:14;12.50;;;7.10;;
19758;SDS011;10038;42.662;23.278;2023-07-13T03:45:40;20.50;;;7.33;;
19758;SDS011;10038;42.662;23.278;2023-07-13T03:48:07;17.37;;;6.00;;
19758;SDS011;10038;42.662;23.278;2023-07-13T03:50:34;20.60;;;7.50;;
19758;SDS011;10038;42.662;23.278;2023-07-13T03:53:00;21.70;;;7.37;;
19758;SDS011;10038;42.662;23.278;2023-07-13T03:55:28;18.27;;;6.47;;
19758;SDS011;10038;42.662;23.278;2023-07-13T03:57:57;16.50;;;6.93;;
19758;SDS011;10038;42.662;23.278;2023-07-13T04:00:24;11.50;;;6.50;;
19758;SDS011;10038;42.662;23.278;2023-07-13T04:02:51;13.13;;;6.10;;
19758;SDS011;10038;42.662;23.278;2023-07-13T04:05:17;11.87;;;6.00;;
19758;SDS011;10038;42.662;23.278;2023-07-13T04:07:44;11.40;;;6.53;;
19758;SDS011;10038;42.662;23.278;2023-07-13T04:10:10;10.23;;;7.23;;
19758;SDS011;10038;42.662;23.278;2023-07-13T04:12:38;9.00;;;6.77;;
19758;SDS011;10038;42.662;23.278;2023-07-13T04:15:05;11.13;;;7.43;;
19758;SDS011;10038;42.662;23.278;2023-07-13T04:17:32;8.43;;;6.70;;
19758;SDS011;10038;42.662;23.278;2023-07-13T04:19:59;8.90;;;6.73;;
19758;SDS011;10038;42.662;23.278;2023-07-13T04:22:25;7.73;;;6.37;;
19758;SDS011;10038;42.662;23.278;2023-07-13T04:24:52;9.63;;;7.13;;
19758;SDS011;10038;42.662;23.278;2023-07-13T04:27:18;11.30;;;7.93;;
19758;SDS011;10038;42.662;23.278;2023-07-13T04:29:46;8.57;;;7.13;;
19758;SDS011;10038;42.662;23.278;2023-07-13T04:32:13;8.97;;;6.73;;
19758;SDS011;10038;42.662;23.278;2023-07-13T04:34:39;9.00;;;7.73;;
19758;SDS011;10038;42.662;23.278;2023-07-13T04:37:06;11.50;;;7.50;;
19758;SDS011;10038;42.662;23.278;2023-07-13T04:39:32;10.50;;;7.37;;
19758;SDS011;10038;42.662;23.278;2023-07-13T04:41:59;11.47;;;7.83;;
19758;SDS011;10038;42.662;23.278;2023-07-13T04:44:26;9.00;;;7.20;;
19758;SDS011;10038;42.662;23.278;2023-07-13T04:46:53;13.33;;;7.90;;
19758;SDS011;10038;42.662;23.278;2023-07-13T04:49:20;9.30;;;7.07;;
19758;SDS011;10038;42.662;23.278;2023-07-13T04:51:47;18.17;;;8.50;;
19758;SDS011;10038;42.662;23.278;2023-07-13T04:54:13;12.70;;;8.80;;
19758;SDS011;10038;42.662;23.278;2023-07-13T04:56:40;14.03;;;8.90;;
19758;SDS011;10038;42.662;23.278;2023-07-13T04:59:06;13.10;;;8.13;;
19758;SDS011;10038;42.662;23.278;2023-07-13T05:01:33;14.00;;;8.33;;
19758;SDS011;10038;42.662;23.278;2023-07-13T05:04:01;11.27;;;8.77;;
19758;SDS011;10038;42.662;23.278;2023-07-13T05:06:27;12.30;;;8.23;;
19758;SDS011;10038;42.662;23.278;2023-07-13T05:08:55;9.63;;;8.47;;
19758;SDS011;10038;42.662;23.278;2023-07-13T05:11:22;9.47;;;8.47;;
19758;SDS011;10038;42.662;23.278;2023-07-13T05:13:49;11.23;;;7.90;;
19758;SDS011;10038;42.662;23.278;2023-07-13T05:16:15;13.07;;;8.60;;
19758;SDS011;10038;42.662;23.278;2023-07-13T05:18:42;11.07;;;9.03;;
19758;SDS011;10038;42.662;23.278;2023-07-13T05:21:10;14.90;;;9.03;;
19758;SDS011;10038;42.662;23.278;2023-07-13T05:23:37;13.37;;;9.47;;
19758;SDS011;10038;42.662;23.278;2023-07-13T05:26:04;12.13;;;9.17;;
19758;SDS011;10038;42.662;23.278;2023-07-13T05:28:30;10.73;;;9.63;;
19758;SDS011;10038;42.662;23.278;2023-07-13T05:30:57;10.57;;;9.40;;
19758;SDS011;10038;42.662;23.278;2023-07-13T05:33:24;22.00;;;10.07;;
19758;SDS011;10038;42.662;23.278;2023-07-13T05:35:51;11.47;;;9.23;;
19758;SDS011;10038;42.662;23.278;2023-07-13T05:38:19;15.87;;;9.60;;
19758;SDS011;10038;42.662;23.278;2023-07-13T05:40:46;17.53;;;9.77;;
19758;SDS011;10038;42.662;23.278;2023-07-13T05:43:13;14.00;;;9.87;;
19758;SDS011;10038;42.662;23.278;2023-07-13T05:45:39;17.70;;;8.93;;
19758;SDS011;10038;42.662;23.278;2023-07-13T05:48:06;12.10;;;8.97;;
19758;SDS011;10038;42.662;23.278;2023-07-13T05:50:33;14.43;;;10.63;;
19758;SDS011;10038;42.662;23.278;2023-07-13T05:52:59;12.90;;;10.17;;
19758;SDS011;10038;42.662;23.278;2023-07-13T05:55:27;10.63;;;8.83;;
19758;SDS011;10038;42.662;23.278;2023-07-13T05:57:54;13.50;;;9.70;;
19758;SDS011;10038;42.662;23.278;2023-07-13T06:00:20;19.10;;;11.70;;
19758;SDS011;10038;42.662;23.278;2023-07-13T06:02:47;13.23;;;10.50;;
19758;SDS011;10038;42.662;23.278;2023-07-13T06:05:13;14.60;;;10.80;;
19758;SDS011;10038;42.662;23.278;2023-07-13T06:07:40;20.40;;;11.70;;
19758;SDS011;10038;42.662;23.278;2023-07-13T06:10:07;12.00;;;10.77;;
19758;SDS011;10038;42.662;23.278;2023-07-13T06:12:35;16.43;;;11.97;;
19758;SDS011;10038;42.662;23.278;2023-07-13T06:15:02;13.17;;;11.00;;
19758;SDS011;10038;42.662;23.278;2023-07-13T06:17:29;18.57;;;11.03;;
19758;SDS011;10038;42.662;23.278;2023-07-13T06:19:56;17.67;;;10.73;;
19758;SDS011;10038;42.662;23.278;2023-07-13T06:22:22;14.67;;;11.70;;
19758;SDS011;10038;42.662;23.278;2023-07-13T06:24:49;17.23;;;10.73;;
19758;SDS011;10038;42.662;23.278;2023-07-13T06:27:15;12.87;;;9.73;;
19758;SDS011;10038;42.662;23.278;2023-07-13T06:29:43;21.23;;;10.27;;
19758;SDS011;10038;42.662;23.278;2023-07-13T06:32:10;14.60;;;10.47;;
19758;SDS011;10038;42.662;23.278;2023-07-13T06:34:37;16.60;;;10.80;;
19758;SDS011;10038;42.662;23.278;2023-07-13T06:37:03;15.03;;;9.13;;
19758;SDS011;10038;42.662;23.278;2023-07-13T06:39:30;10.70;;;8.40;;
19758;SDS011;10038;42.662;23.278;2023-07-13T06:41:56;11.93;;;9.07;;
19758;SDS011;10038;42.662;23.278;2023-07-13T06:44:23;11.17;;;8.30;;
19758;SDS011;10038;42.662;23.278;2023-07-13T06:46:51;15.20;;;9.00;;
19758;SDS011;10038;42.662;23.278;2023-07-13T06:49:17;11.90;;;8.37;;
19758;SDS011;10038;42.662;23.278;2023-07-13T06:51:44;14.23;;;8.73;;
19758;SDS011;10038;42.662;23.278;2023-07-13T06:54:10;13.83;;;7.83;;
19758;SDS011;10038;42.662;23.278;2023-07-13T06:56:38;13.23;;;9.00;;
19758;SDS011;10038;42.662;23.278;2023-07-13T06:59:04;10.30;;;7.53;;
19758;SDS011;10038;42.662;23.278;2023-07-13T07:01:31;15.90;;;8.80;;
19758;SDS011;10038;42.662;23.278;2023-07-13T07:03:59;11.33;;;9.83;;
19758;SDS011;10038;42.662;23.278;2023-07-13T07:06:25;10.53;;;9.03;;
19758;SDS011;10038;42.662;23.278;2023-07-13T07:08:52;10.80;;;9.40;;
19758;SDS011;10038;42.662;23.278;2023-07-13T07:11:19;12.67;;;9.03;;
19758;SDS011;10038;42.662;23.278;2023-07-13T07:13:47;12.43;;;9.17;;
19758;SDS011;10038;42.662;23.278;2023-07-13T07:16:14;12.33;;;8.90;;
19758;SDS011;10038;42.662;23.278;2023-07-13T07:18:40;14.60;;;9.43;;
19758;SDS011;10038;42.662;23.278;2023-07-13T07:21:08;11.03;;;8.73;;
19758;SDS011;10038;42.662;23.278;2023-07-13T07:23:35;13.10;;;8.03;;
19758;SDS011;10038;42.662;23.278;2023-07-13T07:26:02;11.20;;;8.73;;
19758;SDS011;10038;42.662;23.278;2023-07-13T07:28:28;9.33;;;8.13;;
19758;SDS011;10038;42.662;23.278;2023-07-13T07:30:55;11.83;;;8.17;;
19758;SDS011;10038;42.662;23.278;2023-07-13T07:33:22;10.50;;;9.40;;
19758;SDS011;10038;42.662;23.278;2023-07-13T07:35:49;9.73;;;8.73;;
19758;SDS011;10038;42.662;23.278;2023-07-13T07:38:17;10.20;;;8.30;;
19758;SDS011;10038;42.662;23.278;2023-07-13T07:40:43;10.57;;;8.40;;
19758;SDS011;10038;42.662;23.278;2023-07-13T07:43:11;13.47;;;8.30;;
19758;SDS011;10038;42.662;23.278;2023-07-13T07:45:39;11.53;;;8.77;;
19758;SDS011;10038;42.662;23.278;2023-07-13T07:48:06;11.87;;;8.47;;
19758;SDS011;10038;42.662;23.278;2023-07-13T07:50:34;9.83;;;8.40;;
19758;SDS011;10038;42.662;23.278;2023-07-13T07:53:01;10.70;;;8.70;;
19758;SDS011;10038;42.662;23.278;2023-07-13T07:55:29;18.30;;;8.63;;
19758;SDS011;10038;42.662;23.278;2023-07-13T07:57:56;16.60;;;8.53;;
19758;SDS011;10038;42.662;23.278;2023-07-13T08:00:23;14.90;;;9.97;;
19758;SDS011;10038;42.662;23.278;2023-07-13T08:02:49;15.63;;;8.77;;
19758;SDS011;10038;42.662;23.278;2023-07-13T08:05:16;13.57;;;9.00;;
19758;SDS011;10038;42.662;23.278;2023-07-13T08:07:43;12.47;;;8.50;;
19758;SDS011;10038;42.662;23.278;2023-07-13T08:10:09;9.97;;;8.90;;
19758;SDS011;10038;42.662;23.278;2023-07-13T08:12:38;15.47;;;8.63;;
19758;SDS011;10038;42.662;23.278;2023-07-13T08:15:07;9.50;;;8.60;;
19758;SDS011;10038;42.662;23.278;2023-07-13T08:17:35;14.10;;;8.73;;
19758;SDS011;10038;42.662;23.278;2023-07-13T08:20:02;10.20;;;8.13;;
19758;SDS011;10038;42.662;23.278;2023-07-13T08:22:29;9.70;;;8.30;;
19758;SDS011;10038;42.662;23.278;2023-07-13T08:24:55;11.30;;;9.13;;
19758;SDS011;10038;42.662;23.278;2023-07-13T08:27:22;18.93;;;8.77;;
19758;SDS011;10038;42.662;23.278;2023-07-13T08:29:51;9.57;;;8.23;;
19758;SDS011;10038;42.662;23.278;2023-07-13T08:32:18;12.63;;;9.07;;
19758;SDS011;10038;42.662;23.278;2023-07-13T08:34:44;14.53;;;8.87;;
19758;SDS011;10038;42.662;23.278;2023-07-13T08:37:11;9.40;;;8.50;;
19758;SDS011;10038;42.662;23.278;2023-07-13T08:39:38;15.37;;;7.93;;
19758;SDS011;10038;42.662;23.278;2023-07-13T08:42:05;9.07;;;8.17;;
19758;SDS011;10038;42.662;23.278;2023-07-13T08:44:36;10.70;;;8.67;;
19758;SDS011;10038;42.662;23.278;2023-07-13T08:47:08;15.60;;;8.33;;
19758;SDS011;10038;42.662;23.278;2023-07-13T08:49:36;12.90;;;8.07;;
19758;SDS011;10038;42.662;23.278;2023-07-13T08:52:05;9.20;;;7.77;;
19758;SDS011;10038;42.662;23.278;2023-07-13T08:54:35;10.33;;;7.83;;
19758;SDS011;10038;42.662;23.278;2023-07-13T08:57:10;15.23;;;7.63;;
19758;SDS011;10038;42.662;23.278;2023-07-13T08:59:38;13.00;;;7.57;;
19758;SDS011;10038;42.662;23.278;2023-07-13T09:02:17;16.40;;;7.97;;
19758;SDS011;10038;42.662;23.278;2023-07-13T09:04:48;9.20;;;8.17;;
19758;SDS011;10038;42.662;23.278;2023-07-13T09:07:19;10.13;;;7.07;;
19758;SDS011;10038;42.662;23.278;2023-07-13T09:09:51;9.00;;;8.10;;
19758;SDS011;10038;42.662;23.278;2023-07-13T09:12:22;11.10;;;7.67;;
19758;SDS011;10038;42.662;23.278;2023-07-13T09:14:51;8.77;;;7.87;;
19758;SDS011;10038;42.662;23.278;2023-07-13T09:17:20;9.83;;;8.07;;
19758;SDS011;10038;42.662;23.278;2023-07-13T09:19:49;12.33;;;8.20;;
19758;SDS011;10038;42.662;23.278;2023-07-13T09:22:19;8.90;;;7.30;;
19758;SDS011;10038;42.662;23.278;2023-07-13T09:24:50;9.50;;;8.70;;
19758;SDS011;10038;42.662;23.278;2023-07-13T09:27:17;9.57;;;8.77;;
19758;SDS011;10038;42.662;23.278;2023-07-13T09:29:46;8.50;;;7.53;;
19758;SDS011;10038;42.662;23.278;2023-07-13T09:32:14;11.53;;;8.67;;
19758;SDS011;10038;42.662;23.278;2023-07-13T09:34:45;8.73;;;7.83;;
19758;SDS011;10038;42.662;23.278;2023-07-13T09:37:16;10.23;;;7.90;;
19758;SDS011;10038;42.662;23.278;2023-07-13T09:39:42;11.00;;;7.47;;
19758;SDS011;10038;42.662;23.278;2023-07-13T09:42:12;10.57;;;8.00;;
19758;SDS011;10038;42.662;23.278;2023-07-13T09:44:49;10.70;;;7.70;;
19758;SDS011;10038;42.662;23.278;2023-07-13T09:47:18;13.37;;;7.83;;
19758;SDS011;10038;42.662;23.278;2023-07-13T09:49:49;13.20;;;9.10;;
19758;SDS011;10038;42.662;23.278;2023-07-13T09:52:20;8.73;;;7.93;;
19758;SDS011;10038;42.662;23.278;2023-07-13T09:54:48;8.50;;;7.70;;
19758;SDS011;10038;42.662;23.278;2023-07-13T09:57:17;11.23;;;7.80;;
19758;SDS011;10038;42.662;23.278;2023-07-13T09:59:45;7.03;;;4.87;;
19758;SDS011;10038;42.662;23.278;2023-07-13T10:02:24;5.33;;;4.83;;
19758;SDS011;10038;42.662;23.278;2023-07-13T10:04:56;5.20;;;4.30;;
19758;SDS011;10038;42.662;23.278;2023-07-13T10:07:23;6.00;;;4.17;;
19758;SDS011;10038;42.662;23.278;2023-07-13T10:09:51;9.70;;;4.53;;
19758;SDS011;10038;42.662;23.278;2023-07-13T10:12:18;5.20;;;4.80;;
19758;SDS011;10038;42.662;23.278;2023-07-13T10:17:27;4.97;;;4.43;;
19758;SDS011;10038;42.662;23.278;2023-07-13T10:19:58;7.43;;;4.60;;
19758;SDS011;10038;42.662;23.278;2023-07-13T10:22:26;5.13;;;4.50;;
19758;SDS011;10038;42.662;23.278;2023-07-13T10:24:53;8.73;;;5.67;;
19758;SDS011;10038;42.662;23.278;2023-07-13T10:27:23;7.10;;;4.30;;
19758;SDS011;10038;42.662;23.278;2023-07-13T10:29:52;6.20;;;5.07;;
19758;SDS011;10038;42.662;23.278;2023-07-13T10:32:21;9.33;;;4.23;;
19758;SDS011;10038;42.662;23.278;2023-07-13T10:34:48;8.70;;;4.43;;
19758;SDS011;10038;42.662;23.278;2023-07-13T10:37:20;5.87;;;4.43;;
19758;SDS011;10038;42.662;23.278;2023-07-13T10:39:50;8.13;;;5.53;;
19758;SDS011;10038;42.662;23.278;2023-07-13T10:42:18;5.70;;;5.20;;
19758;SDS011;10038;42.662;23.278;2023-07-13T10:44:49;7.20;;;4.10;;
19758;SDS011;10038;42.662;23.278;2023-07-13T10:47:16;8.67;;;4.40;;
19758;SDS011;10038;42.662;23.278;2023-07-13T10:49:43;5.23;;;4.70;;
19758;SDS011;10038;42.662;23.278;2023-07-13T10:54:54;6.63;;;5.10;;
19758;SDS011;10038;42.662;23.278;2023-07-13T10:57:22;6.10;;;5.00;;
19758;SDS011;10038;42.662;23.278;2023-07-13T10:59:49;6.40;;;5.83;;
19758;SDS011;10038;42.662;23.278;2023-07-13T11:02:26;8.20;;;4.50;;
19758;SDS011;10038;42.662;23.278;2023-07-13T11:04:54;7.87;;;4.67;;
19758;SDS011;10038;42.662;23.278;2023-07-13T11:07:23;5.63;;;5.17;;
19758;SDS011;10038;42.662;23.278;2023-07-13T11:09:52;4.73;;;4.20;;
19758;SDS011;10038;42.662;23.278;2023-07-13T11:12:26;5.43;;;4.90;;
19758;SDS011;10038;42.662;23.278;2023-07-13T11:15:09;6.43;;;5.00;;
19758;SDS011;10038;42.662;23.278;2023-07-13T11:17:37;5.40;;;4.57;;
19758;SDS011;10038;42.662;23.278;2023-07-13T11:20:19;6.40;;;4.70;;
19758;SDS011;10038;42.662;23.278;2023-07-13T11:22:47;8.57;;;4.40;;
19758;SDS011;10038;42.662;23.278;2023-07-13T11:25:30;7.70;;;4.43;;
19758;SDS011;10038;42.662;23.278;2023-07-13T11:28:06;6.50;;;4.83;;
19758;SDS011;10038;42.662;23.278;2023-07-13T11:30:35;5.13;;;4.30;;
19758;SDS011;10038;42.662;23.278;2023-07-13T11:33:03;6.20;;;4.57;;
19758;SDS011;10038;42.662;23.278;2023-07-13T11:35:32;12.70;;;5.17;;
19758;SDS011;10038;42.662;23.278;2023-07-13T11:38:00;11.83;;;5.13;;
19758;SDS011;10038;42.662;23.278;2023-07-13T11:40:26;9.10;;;5.50;;
19758;SDS011;10038;42.662;23.278;2023-07-13T11:43:00;5.87;;;5.13;;
19758;SDS011;10038;42.662;23.278;2023-07-13T11:45:27;7.33;;;5.00;;
19758;SDS011;10038;42.662;23.278;2023-07-13T11:47:53;10.27;;;5.27;;
19758;SDS011;10038;42.662;23.278;2023-07-13T11:50:22;7.10;;;5.17;;
19758;SDS011;10038;42.662;23.278;2023-07-13T11:52:49;8.67;;;4.67;;
19758;SDS011;10038;42.662;23.278;2023-07-13T11:55:18;7.90;;;4.20;;
19758;SDS011;10038;42.662;23.278;2023-07-13T11:57:45;5.70;;;4.73;;
19758;SDS011;10038;42.662;23.278;2023-07-13T12:00:14;5.50;;;4.97;;
19758;SDS011;10038;42.662;23.278;2023-07-13T12:02:43;6.23;;;4.70;;
19758;SDS011;10038;42.662;23.278;2023-07-13T12:05:11;7.67;;;4.80;;
19758;SDS011;10038;42.662;23.278;2023-07-13T12:07:38;6.93;;;4.70;;
19758;SDS011;10038;42.662;23.278;2023-07-13T12:10:13;8.43;;;4.70;;
19758;SDS011;10038;42.662;23.278;2023-07-13T12:12:46;5.43;;;4.50;;
19758;SDS011;10038;42.662;23.278;2023-07-13T12:15:14;5.50;;;4.67;;
19758;SDS011;10038;42.662;23.278;2023-07-13T12:17:41;4.87;;;4.20;;
19758;SDS011;10038;42.662;23.278;2023-07-13T12:20:14;8.80;;;4.90;;
19758;SDS011;10038;42.662;23.278;2023-07-13T12:22:45;5.43;;;4.10;;
19758;SDS011;10038;42.662;23.278;2023-07-13T12:25:12;7.47;;;5.10;;
19758;SDS011;10038;42.662;23.278;2023-07-13T12:27:42;5.93;;;5.00;;
19758;SDS011;10038;42.662;23.278;2023-07-13T12:30:21;10.73;;;4.87;;
19758;SDS011;10038;42.662;23.278;2023-07-13T12:32:55;9.30;;;5.00;;
19758;SDS011;10038;42.662;23.278;2023-07-13T12:35:22;9.17;;;5.30;;
19758;SDS011;10038;42.662;23.278;2023-07-13T12:37:49;7.33;;;4.70;;
19758;SDS011;10038;42.662;23.278;2023-07-13T12:40:18;6.07;;;4.27;;
19758;SDS011;10038;42.662;23.278;2023-07-13T12:42:45;5.40;;;4.53;;
19758;SDS011;10038;42.662;23.278;2023-07-13T12:45:16;5.90;;;4.30;;
19758;SDS011;10038;42.662;23.278;2023-07-13T12:47:47;7.67;;;4.87;;
19758;SDS011;10038;42.662;23.278;2023-07-13T12:50:15;5.20;;;4.30;;
19758;SDS011;10038;42.662;23.278;2023-07-13T12:52:42;4.70;;;4.13;;
19758;SDS011;10038;42.662;23.278;2023-07-13T12:55:11;7.53;;;4.97;;
19758;SDS011;10038;42.662;23.278;2023-07-13T12:57:40;9.33;;;4.40;;
19758;SDS011;10038;42.662;23.278;2023-07-13T13:02:54;8.30;;;4.87;;
19758;SDS011;10038;42.662;23.278;2023-07-13T13:05:24;7.03;;;4.83;;
19758;SDS011;10038;42.662;23.278;2023-07-13T13:07:51;8.17;;;4.27;;
19758;SDS011;10038;42.662;23.278;2023-07-13T13:10:18;7.70;;;4.80;;
19758;SDS011;10038;42.662;23.278;2023-07-13T13:12:46;12.40;;;4.47;;
19758;SDS011;10038;42.662;23.278;2023-07-13T13:15:13;6.00;;;4.47;;
19758;SDS011;10038;42.662;23.278;2023-07-13T13:17:39;6.13;;;4.97;;
19758;SDS011;10038;42.662;23.278;2023-07-13T13:20:14;5.00;;;4.30;;
19758;SDS011;10038;42.662;23.278;2023-07-13T13:22:41;4.80;;;4.30;;
19758;SDS011;10038;42.662;23.278;2023-07-13T13:25:09;13.13;;;4.67;;
19758;SDS011;10038;42.662;23.278;2023-07-13T13:27:36;9.47;;;4.43;;
19758;SDS011;10038;42.662;23.278;2023-07-13T13:30:03;6.07;;;4.60;;
19758;SDS011;10038;42.662;23.278;2023-07-13T13:32:30;12.23;;;4.73;;
19758;SDS011;10038;42.662;23.278;2023-07-13T13:34:57;7.50;;;4.73;;
19758;SDS011;10038;42.662;23.278;2023-07-13T13:37:25;7.70;;;4.60;;
19758;SDS011;10038;42.662;23.278;2023-07-13T13:39:55;8.60;;;4.67;;
19758;SDS011;10038;42.662;23.278;2023-07-13T13:42:22;15.97;;;5.30;;
19758;SDS011;10038;42.662;23.278;2023-07-13T13:44:50;12.70;;;5.57;;
19758;SDS011;10038;42.662;23.278;2023-07-13T13:47:29;6.60;;;4.97;;
19758;SDS011;10038;42.662;23.278;2023-07-13T13:49:56;9.17;;;4.30;;
19758;SDS011;10038;42.662;23.278;2023-07-13T13:52:24;7.80;;;4.80;;
19758;SDS011;10038;42.662;23.278;2023-07-13T13:54:51;6.30;;;4.20;;
19758;SDS011;10038;42.662;23.278;2023-07-13T13:57:21;10.90;;;4.33;;
19758;SDS011;10038;42.662;23.278;2023-07-13T13:59:48;9.00;;;4.50;;
19758;SDS011;10038;42.662;23.278;2023-07-13T14:02:25;9.93;;;4.30;;
19758;SDS011;10038;42.662;23.278;2023-07-13T14:04:53;8.50;;;4.13;;
19758;SDS011;10038;42.662;23.278;2023-07-13T14:07:20;9.30;;;4.77;;
19758;SDS011;10038;42.662;23.278;2023-07-13T14:09:48;8.10;;;4.37;;
19758;SDS011;10038;42.662;23.278;2023-07-13T14:12:15;9.53;;;5.30;;
19758;SDS011;10038;42.662;23.278;2023-07-13T14:14:42;10.60;;;4.10;;
19758;SDS011;10038;42.662;23.278;2023-07-13T14:17:11;7.10;;;5.50;;
19758;SDS011;10038;42.662;23.278;2023-07-13T14:19:44;9.30;;;3.70;;
19758;SDS011;10038;42.662;23.278;2023-07-13T14:22:10;10.83;;;5.00;;
19758;SDS011;10038;42.662;23.278;2023-07-13T14:24:37;5.53;;;5.03;;
19758;SDS011;10038;42.662;23.278;2023-07-13T14:27:07;8.07;;;4.70;;
19758;SDS011;10038;42.662;23.278;2023-07-13T14:29:34;24.37;;;5.77;;
19758;SDS011;10038;42.662;23.278;2023-07-13T14:32:01;8.17;;;4.17;;
19758;SDS011;10038;42.662;23.278;2023-07-13T14:34:27;7.00;;;4.40;;
19758;SDS011;10038;42.662;23.278;2023-07-13T14:36:54;7.20;;;5.03;;
19758;SDS011;10038;42.662;23.278;2023-07-13T14:39:22;13.83;;;4.70;;
19758;SDS011;10038;42.662;23.278;2023-07-13T14:41:49;15.00;;;5.10;;
19758;SDS011;10038;42.662;23.278;2023-07-13T14:44:20;13.30;;;4.80;;
19758;SDS011;10038;42.662;23.278;2023-07-13T14:46:48;8.10;;;5.07;;